This is the latest recevied weather packets stored in our database for station/object N7NIP. If no packets are shown the sender has not sent any weather packets the latest 10 day(s).
| Time | Temp. | Humidity | Pressure | Rain* | Wind** | Luminosity | Snow |
|---|---|---|---|---|---|---|---|
| 1778035413 | 15° C | 80% | 1029.2 hPa | 0 mm | - | 33 W/m² | - |
| 1778035109 | 15.56° C | 79% | 1029.1 hPa | 0 mm | - | 36 W/m² | - |
| 1778034806 | 15.56° C | 77% | 1029.1 hPa | 0 mm | - | 39 W/m² | - |
| 1778034502 | 16.11° C | 76% | 1029.3 hPa | 0 mm | - | 43 W/m² | - |
| 1778034200 | 16.11° C | 74% | 1029.1 hPa | 0 mm | - | 48 W/m² | - |
| 1778033898 | 16.67° C | 73% | 1029.1 hPa | 0 mm | - | 49 W/m² | - |
| 1778033595 | 16.67° C | 71% | 1028.9 hPa | 0 mm | - | 51 W/m² | - |
| 1778033291 | 16.67° C | 72% | 1029.1 hPa | 0 mm | - | 54 W/m² | - |
| 1778032989 | 16.67° C | 70% | 1028.9 hPa | 0 mm | - | 56 W/m² | - |
| 1778032687 | 17.22° C | 71% | 1029.2 hPa | 0 mm | - | 60 W/m² | - |
| 1778032384 | 17.78° C | 67% | 1029.1 hPa | 0 mm | - | 62 W/m² | - |
| 1778032081 | 18.89° C | 64% | 1028.9 hPa | 0 mm | - | 64 W/m² | - |
| 1778031778 | 18.89° C | 64% | 1029.1 hPa | 0 mm | - | 143 W/m² | - |
| 1778031474 | 18.33° C | 65% | 1029.3 hPa | 0 mm | - | 158 W/m² | - |
| 1778031171 | 17.78° C | 66% | 1029 hPa | 0 mm | - | 175 W/m² | - |
| 1778030868 | 17.78° C | 66% | 1029.1 hPa | 0 mm | - | 191 W/m² | - |
| 1778030565 | 17.78° C | 67% | 1029.1 hPa | 0 mm | - | 207 W/m² | - |
| 1778030262 | 17.78° C | 67% | 1029.2 hPa | 0 mm | - | 223 W/m² | - |
| 1778029958 | 18.33° C | 66% | 1029.1 hPa | 0 mm | - | 249 W/m² | - |
| 1778029657 | 17.78° C | 66% | 1029.1 hPa | 0 mm | - | 265 W/m² | - |
| 1778029354 | 17.78° C | 68% | 1029.2 hPa | 0 mm | - | 288 W/m² | - |
| 1778029051 | 18.33° C | 66% | 1029.3 hPa | 0 mm | - | 303 W/m² | - |
| 1778028748 | 18.89° C | 64% | 1029.3 hPa | 0 mm | - | 319 W/m² | - |
| 1778028443 | 18.89° C | 65% | 1029.3 hPa | 0 mm | - | 346 W/m² | - |
| 1778028141 | 18.33° C | 67% | 1029.2 hPa | 0 mm | - | 377 W/m² | - |
* Rain latest hour (hover to see other rain measurements)
** Current wind speed in m/s (hover to see current wind gust speed)